createdAt,value
2022-08-22T00:02:09.020Z,100073.15
2022-08-22T00:05:09.013Z,100074.31
2022-08-22T00:08:03.133Z,100072.58
2022-08-22T00:10:57.888Z,100073.02
2022-08-22T00:14:01.289Z,100078.41
2022-08-22T00:17:00.329Z,100078.84
2022-08-22T00:19:49.016Z,100074.88
2022-08-22T00:22:44.846Z,100074.73
2022-08-22T00:25:41.914Z,100079.03
2022-08-22T00:28:36.560Z,100076.95
2022-08-22T00:31:15.403Z,100079.69
2022-08-22T00:34:05.457Z,100078.49
2022-08-22T00:36:56.539Z,100081.56
2022-08-22T00:39:49.771Z,100081.81
2022-08-22T00:42:55.393Z,100083.17
2022-08-22T00:46:08.079Z,100078.09
2022-08-22T00:49:10.598Z,100077.97
2022-08-22T00:52:30.270Z,100080.14
2022-08-22T00:55:37.719Z,100078.31
2022-08-22T00:58:54.063Z,100080.40
2022-08-22T01:01:57.158Z,100079.16
2022-08-22T01:04:49.851Z,100079.86
2022-08-22T01:07:52.099Z,100086.98
2022-08-22T01:10:55.520Z,100083.41
2022-08-22T01:13:59.673Z,100080.77
2022-08-22T01:17:10.934Z,100084.23
2022-08-22T01:20:42.060Z,100080.66
2022-08-22T01:24:12.601Z,100080.41
2022-08-22T01:27:24.724Z,100083.66
2022-08-22T01:30:17.975Z,100089.63
2022-08-22T01:33:32.673Z,100090.86
2022-08-22T01:36:46.641Z,100092.65
2022-08-22T01:40:02.683Z,100094.39
2022-08-22T01:43:07.193Z,100097.39
2022-08-22T01:46:21.497Z,100100.95
2022-08-22T01:49:20.513Z,100097.83
2022-08-22T01:52:19.552Z,100092.57
2022-08-22T01:55:21.275Z,100090.88
2022-08-22T01:58:18.554Z,100089.31
2022-08-22T02:01:20.083Z,100088.23
2022-08-22T02:04:17.166Z,100089.38
2022-08-22T02:07:14.693Z,100090.48
2022-08-22T02:10:14.715Z,100086.64
2022-08-22T02:13:25.422Z,100093.11
2022-08-22T02:16:25.679Z,100093.41
2022-08-22T02:19:18.318Z,100093.58
2022-08-22T02:22:24.320Z,100094.30
2022-08-22T02:25:19.095Z,100092.55
2022-08-22T02:28:12.797Z,100094.81
2022-08-22T02:31:06.850Z,100095.35
2022-08-22T02:33:58.869Z,100092.74
2022-08-22T02:36:58.229Z,100092.03
2022-08-22T02:39:54.095Z,100091.38
2022-08-22T02:42:49.493Z,100097.12
2022-08-22T02:45:46.618Z,100094.64
2022-08-22T02:48:42.116Z,100097.90
2022-08-22T02:51:40.956Z,100097.83
2022-08-22T02:54:37.104Z,100097.92
2022-08-22T02:57:39.371Z,100094.65
2022-08-22T03:00:41.203Z,100097.73
2022-08-22T03:03:37.248Z,100098.84
2022-08-22T03:06:40.219Z,100097.24
2022-08-22T03:09:25.146Z,100098.89
2022-08-22T03:12:21.506Z,100097.98
2022-08-22T03:15:21.427Z,100104.20
2022-08-22T03:18:22.476Z,100100.96
2022-08-22T03:21:18.442Z,100099.99
2022-08-22T03:24:12.490Z,100097.20
2022-08-22T03:27:05.761Z,100100.05
2022-08-22T03:29:58.640Z,100105.50
2022-08-22T03:32:49.196Z,100106.80
2022-08-22T03:35:37.789Z,100108.61
2022-08-22T03:38:39.850Z,100107.39
2022-08-22T03:41:48.951Z,100106.67
2022-08-22T03:45:19.185Z,100109.34
2022-08-22T03:48:31.816Z,100114.11
2022-08-22T03:51:47.419Z,100111.70
2022-08-22T03:55:04.952Z,100113.41
2022-08-22T03:58:27.905Z,100115.62
2022-08-22T04:01:58.057Z,100120.92
2022-08-22T04:05:14.655Z,100114.98
2022-08-22T04:08:43.785Z,100117.64
2022-08-22T04:12:10.275Z,100121.24
2022-08-22T04:15:45.102Z,100122.87
2022-08-22T04:19:08.005Z,100125.50
2022-08-22T04:22:23.239Z,100127.91
2022-08-22T04:25:17.255Z,100128.90
2022-08-22T04:28:17.276Z,100134.69
2022-08-22T04:31:11.350Z,100139.67
2022-08-22T04:34:06.574Z,100138.48
2022-08-22T04:37:00.025Z,100137.39
2022-08-22T04:39:57.285Z,100142.13
2022-08-22T04:42:53.328Z,100141.46
2022-08-22T04:45:42.037Z,100145.23
2022-08-22T04:48:29.196Z,100152.46
2022-08-22T04:51:26.419Z,100154.42
2022-08-22T04:54:38.865Z,100153.66
2022-08-22T04:57:42.584Z,100155.67
2022-08-22T05:00:41.462Z,100155.36
2022-08-22T05:03:24.722Z,100151.81
2022-08-22T05:06:06.192Z,100154.59
2022-08-22T05:08:58.902Z,100153.41
2022-08-22T05:11:30.475Z,100147.20
2022-08-22T05:14:28.759Z,100152.52
2022-08-22T05:17:22.960Z,100156.27
2022-08-22T05:20:17.860Z,100154.88
2022-08-22T05:23:18.685Z,100161.50
2022-08-22T05:26:10.549Z,100166.59
2022-08-22T05:29:04.056Z,100166.17
2022-08-22T05:31:57.557Z,100165.90
2022-08-22T05:34:48.272Z,100166.24
2022-08-22T05:37:40.276Z,100165.07
2022-08-22T05:40:31.423Z,100166.00
2022-08-22T05:43:23.103Z,100166.40
2022-08-22T05:46:20.228Z,100172.09
2022-08-22T05:49:20.584Z,100168.95
2022-08-22T05:52:19.519Z,100168.86
2022-08-22T05:55:22.699Z,100166.49
2022-08-22T05:58:30.113Z,100165.96
2022-08-22T06:01:28.952Z,100170.60
2022-08-22T06:04:26.192Z,100169.45
2022-08-22T06:07:21.572Z,100176.29
2022-08-22T06:10:21.243Z,100174.33
2022-08-22T06:13:11.474Z,100172.39
2022-08-22T06:16:08.440Z,100172.63
2022-08-22T06:18:59.189Z,100167.94
2022-08-22T06:21:50.789Z,100168.17
2022-08-22T06:24:41.827Z,100165.27
2022-08-22T06:27:32.125Z,100165.08
2022-08-22T06:30:24.173Z,100168.20
2022-08-22T06:33:21.615Z,100171.52
2022-08-22T06:36:31.146Z,100169.00
2022-08-22T06:39:23.433Z,100172.80
2022-08-22T06:42:17.215Z,100175.73
2022-08-22T06:45:10.791Z,100177.68
2022-08-22T06:48:16.762Z,100180.05
2022-08-22T06:51:08.482Z,100181.38
2022-08-22T06:54:03.068Z,100185.77
2022-08-22T06:56:54.864Z,100183.84
2022-08-22T06:59:44.344Z,100188.00
2022-08-22T07:02:40.086Z,100190.77
2022-08-22T07:05:36.032Z,100192.98
2022-08-22T07:08:27.126Z,100193.88
2022-08-22T07:11:21.267Z,100198.42
2022-08-22T07:14:12.080Z,100198.66
2022-08-22T07:17:03.081Z,100196.56
2022-08-22T07:19:59.630Z,100197.63
2022-08-22T07:22:54.569Z,100197.19
2022-08-22T07:25:53.548Z,100199.10
2022-08-22T07:28:51.471Z,100201.93
2022-08-22T07:31:57.978Z,100198.48
2022-08-22T07:35:08.924Z,100197.62
2022-08-22T07:38:13.315Z,100200.02
2022-08-22T07:41:12.821Z,100199.21
2022-08-22T07:44:13.783Z,100202.17
2022-08-22T07:47:00.548Z,100205.20
2022-08-22T07:49:50.077Z,100204.69
2022-08-22T07:52:44.194Z,100207.33
2022-08-22T07:55:33.878Z,100210.55
2022-08-22T07:58:35.479Z,100211.87
2022-08-22T08:01:26.135Z,100210.26
2022-08-22T08:04:21.149Z,100208.88
2022-08-22T10:38:31.787Z,100211.55
2022-08-22T10:41:32.425Z,100215.13
2022-08-22T10:44:30.231Z,100206.60
2022-08-22T10:47:25.638Z,100202.12
2022-08-22T10:50:18.287Z,100204.26
2022-08-22T10:53:29.845Z,100203.03
2022-08-22T10:56:30.082Z,100206.75
2022-08-22T10:59:35.189Z,100203.44
2022-08-22T11:02:44.739Z,100203.20
2022-08-22T11:05:41.307Z,100208.27
2022-08-22T11:09:14.175Z,100204.10
2022-08-22T11:12:10.501Z,100201.30
2022-08-22T11:15:07.182Z,100202.45
2022-08-22T11:18:20.582Z,100195.98
2022-08-22T11:21:18.152Z,100196.41
2022-08-22T11:24:34.869Z,100194.89
2022-08-22T11:27:39.710Z,100202.98
2022-08-22T11:30:46.517Z,100202.55
2022-08-22T11:33:47.191Z,100203.45
2022-08-22T11:36:46.563Z,100203.24
2022-08-22T11:39:42.540Z,100202.56
2022-08-22T11:42:47.377Z,100203.94
2022-08-22T11:45:51.610Z,100206.13
2022-08-22T11:48:52.842Z,100202.77
2022-08-22T11:51:58.618Z,100206.54
2022-08-22T11:55:05.127Z,100209.76
2022-08-22T11:57:58.573Z,100210.20
2022-08-22T12:00:55.448Z,100212.48
2022-08-22T12:03:58.965Z,100215.73
2022-08-22T12:07:01.799Z,100214.92
2022-08-22T12:09:55.156Z,100214.29
2022-08-22T12:13:00.683Z,100214.26
2022-08-22T12:16:00.034Z,100213.20
2022-08-22T12:18:55.520Z,100209.65
2022-08-22T12:22:06.372Z,100210.96
2022-08-22T12:25:08.467Z,100211.35
2022-08-22T12:28:15.842Z,100212.10
2022-08-22T12:31:17.146Z,100210.05
2022-08-22T12:34:15.635Z,100207.65
2022-08-22T12:37:18.483Z,100209.84
2022-08-22T12:40:27.347Z,100208.66
2022-08-22T12:43:27.548Z,100201.54
2022-08-22T12:46:37.217Z,100199.54
2022-08-22T12:49:52.281Z,100200.23
2022-08-22T12:53:00.579Z,100199.09
2022-08-22T12:56:10.288Z,100196.02
2022-08-22T12:59:23.379Z,100197.05
2022-08-22T13:02:19.578Z,100198.64
2022-08-22T13:05:19.823Z,100200.00
2022-08-22T13:08:04.624Z,100203.30
2022-08-22T13:11:01.215Z,100205.09
2022-08-22T13:13:56.783Z,100201.86
2022-08-22T13:16:51.131Z,100201.77
2022-08-22T13:19:53.083Z,100198.48
2022-08-22T13:22:45.639Z,100198.80
2022-08-22T13:26:07.969Z,100198.73
2022-08-22T13:29:24.051Z,100198.39
2022-08-22T13:32:20.612Z,100198.19
2022-08-22T13:35:24.422Z,100193.71
2022-08-22T13:38:25.849Z,100194.70
2022-08-22T13:41:21.568Z,100193.38
2022-08-22T13:44:17.532Z,100191.19
2022-08-22T13:47:14.170Z,100187.71
2022-08-22T13:50:13.946Z,100184.20
2022-08-22T13:53:09.125Z,100186.23
2022-08-22T13:56:15.582Z,100184.85
2022-08-22T13:59:00.096Z,100186.66
2022-08-22T14:01:57.073Z,100185.61
2022-08-22T14:04:50.188Z,100190.27
2022-08-22T14:11:41.975Z,100180.43
2022-08-22T14:14:11.115Z,100175.66
2022-08-22T14:16:50.130Z,100171.23
2022-08-22T14:19:30.467Z,100171.51
2022-08-22T14:22:07.369Z,100170.08
2022-08-22T14:24:47.985Z,100171.17
2022-08-22T14:27:30.415Z,100168.98
2022-08-22T14:30:03.615Z,100172.71
2022-08-22T14:32:47.485Z,100169.96
2022-08-22T14:35:34.830Z,100167.22
2022-08-22T14:38:29.737Z,100169.97
2022-08-22T14:41:03.686Z,100171.02
2022-08-22T14:43:47.938Z,100170.02
2022-08-22T14:46:23.507Z,100172.11
2022-08-22T14:49:26.597Z,100170.30
2022-08-22T14:52:05.989Z,100170.20
2022-08-22T14:54:35.162Z,100168.60
2022-08-22T14:57:10.138Z,100170.68
2022-08-22T14:59:46.373Z,100167.12
2022-08-22T15:02:28.026Z,100168.05
2022-08-22T15:05:00.923Z,100160.95
2022-08-22T15:07:33.198Z,100163.31
2022-08-22T15:10:07.420Z,100160.42
2022-08-22T15:12:48.981Z,100162.98
2022-08-22T15:15:32.109Z,100161.91
2022-08-22T15:18:00.689Z,100163.70
2022-08-22T15:20:36.282Z,100162.85
2022-08-22T15:23:14.885Z,100159.46
2022-08-22T15:25:47.031Z,100165.54
2022-08-22T15:28:20.338Z,100168.21
2022-08-22T15:31:03.576Z,100167.06
2022-08-22T15:33:38.535Z,100162.63
2022-08-22T15:36:15.856Z,100157.46
2022-08-22T15:38:47.893Z,100152.71
2022-08-22T15:41:44.879Z,100151.23
2022-08-22T15:44:32.336Z,100148.48
2022-08-22T15:47:23.775Z,100148.00
2022-08-22T15:49:56.400Z,100149.30
2022-08-22T15:52:29.358Z,100145.21
2022-08-22T15:55:21.068Z,100144.64
2022-08-22T15:57:59.835Z,100138.61
2022-08-22T16:00:36.246Z,100137.19
2022-08-22T16:03:24.570Z,100135.30
2022-08-22T16:05:55.983Z,100141.35
2022-08-22T16:08:32.614Z,100144.82
2022-08-22T16:11:23.776Z,100146.38
2022-08-22T16:14:18.157Z,100146.48
2022-08-22T16:16:56.084Z,100153.71
2022-08-22T16:19:26.714Z,100157.30
2022-08-22T16:22:18.703Z,100162.64
2022-08-22T16:25:02.876Z,100164.46
2022-08-22T16:27:32.204Z,100165.70
2022-08-22T16:30:10.970Z,100167.49
2022-08-22T16:32:49.819Z,100169.06
2022-08-22T16:35:50.387Z,100165.98
2022-08-22T16:38:32.630Z,100169.08
2022-08-22T16:41:04.162Z,100172.93
2022-08-22T16:43:33.199Z,100173.95
2022-08-22T16:46:27.857Z,100175.63
2022-08-22T16:49:03.958Z,100169.33
2022-08-22T16:51:32.616Z,100167.76
2022-08-22T16:54:32.726Z,100165.48
2022-08-22T16:57:15.180Z,100164.86
2022-08-22T16:59:56.495Z,100168.06
2022-08-22T17:02:58.363Z,100168.14
2022-08-22T17:05:40.682Z,100169.05
2022-08-22T17:08:32.632Z,100172.84
2022-08-22T17:11:13.898Z,100175.00
2022-08-22T17:14:08.850Z,100181.24
2022-08-22T17:16:54.594Z,100191.49
2022-08-22T17:19:42.766Z,100192.28
2022-08-22T17:22:16.770Z,100195.63
2022-08-22T17:24:51.250Z,100202.86
2022-08-22T17:27:28.311Z,100203.80
2022-08-22T17:30:06.478Z,100205.85
2022-08-22T17:32:59.223Z,100212.22
2022-08-22T17:35:44.458Z,100209.98
2022-08-22T17:38:28.477Z,100212.34
2022-08-22T17:41:12.220Z,100212.65
2022-08-22T17:43:54.419Z,100216.76
2022-08-22T17:46:35.605Z,100221.17
2022-08-22T17:49:16.057Z,100227.11
2022-08-22T17:51:49.884Z,100220.83
2022-08-22T17:54:24.740Z,100223.26
2022-08-22T17:57:05.702Z,100223.63
2022-08-22T17:59:45.326Z,100229.14
2022-08-22T18:02:18.285Z,100235.05
2022-08-22T18:04:58.202Z,100241.29
2022-08-22T18:07:37.400Z,100238.92
2022-08-22T18:10:13.990Z,100242.27
2022-08-22T18:12:51.728Z,100247.20
2022-08-22T18:15:25.446Z,100248.30
2022-08-22T18:18:01.103Z,100249.67
2022-08-22T18:20:34.716Z,100252.48
2022-08-22T18:23:21.720Z,100253.63
2022-08-22T18:26:18.321Z,100256.48
2022-08-22T18:28:54.348Z,100255.23
2022-08-22T18:31:38.459Z,100256.38
2022-08-22T18:34:17.223Z,100261.15
2022-08-22T18:36:55.346Z,100261.96
2022-08-22T18:39:29.486Z,100262.92
2022-08-22T18:42:04.976Z,100260.95
2022-08-22T18:44:36.535Z,100261.02
2022-08-22T18:47:14.947Z,100260.20
2022-08-22T18:49:54.232Z,100259.23
2022-08-22T18:52:35.204Z,100257.78
2022-08-22T18:55:22.786Z,100255.85
2022-08-22T18:58:12.482Z,100260.88
2022-08-22T19:00:54.716Z,100257.10
2022-08-22T19:03:52.445Z,100265.39
2022-08-22T19:06:45.631Z,100256.64
2022-08-22T19:09:58.856Z,100254.44
2022-08-22T19:12:43.407Z,100253.86
2022-08-22T19:15:26.873Z,100253.73
2022-08-22T19:18:25.571Z,100257.92
2022-08-22T19:21:40.011Z,100258.39
2022-08-22T19:24:11.272Z,100259.23
2022-08-22T19:26:47.207Z,100263.64
2022-08-22T19:29:55.943Z,100259.86
2022-08-22T19:32:58.759Z,100253.49
2022-08-22T19:35:35.806Z,100246.95
2022-08-22T19:38:06.192Z,100244.77
2022-08-22T19:40:53.972Z,100247.84
2022-08-22T19:43:34.246Z,100256.33
2022-08-22T19:46:06.194Z,100254.61
2022-08-22T19:48:44.447Z,100258.75
2022-08-22T19:51:25.826Z,100256.05
2022-08-22T19:54:16.647Z,100255.64
2022-08-22T19:57:01.004Z,100256.02
2022-08-22T19:59:40.945Z,100255.46
2022-08-22T20:02:31.429Z,100261.44
2022-08-22T20:05:20.755Z,100267.96
2022-08-22T20:08:01.399Z,100263.55
2022-08-22T20:10:41.884Z,100258.82
2022-08-22T20:13:20.067Z,100255.71
2022-08-22T20:16:04.893Z,100261.03
2022-08-22T20:19:05.972Z,100261.55
2022-08-22T20:21:48.962Z,100261.33
2022-08-22T20:24:27.415Z,100259.55
2022-08-22T20:27:13.367Z,100253.30
2022-08-22T20:29:51.375Z,100254.60
2022-08-22T20:32:22.490Z,100253.74
2022-08-22T20:34:58.604Z,100253.20
2022-08-22T20:38:04.831Z,100251.91
2022-08-22T20:40:56.737Z,100252.58
2022-08-22T20:43:30.177Z,100254.52
2022-08-22T20:46:12.857Z,100256.30
2022-08-22T20:48:44.711Z,100256.94
2022-08-22T20:51:17.481Z,100258.19
2022-08-22T20:53:53.171Z,100257.35
2022-08-22T20:56:37.708Z,100257.04
2022-08-22T20:59:26.876Z,100255.39
2022-08-22T21:01:57.176Z,100259.57
2022-08-22T21:04:32.621Z,100265.73
2022-08-22T21:07:01.922Z,100261.67
2022-08-22T21:09:48.951Z,100260.75
2022-08-22T21:12:17.624Z,100254.23
2022-08-22T21:14:46.353Z,100250.67
2022-08-22T21:17:20.966Z,100244.89
2022-08-22T21:19:49.769Z,100243.55
2022-08-22T21:22:25.370Z,100246.92
2022-08-22T21:24:58.570Z,100248.34
2022-08-22T21:27:29.584Z,100248.80
2022-08-22T21:30:02.470Z,100247.66
2022-08-22T21:32:34.480Z,100242.88
2022-08-22T21:35:06.189Z,100240.27
2022-08-22T21:37:39.332Z,100243.91
2022-08-22T21:40:15.381Z,100241.63
2022-08-22T21:42:59.161Z,100240.02
2022-08-22T21:45:30.818Z,100237.66
2022-08-22T21:48:02.826Z,100229.76
2022-08-22T21:50:37.611Z,100232.36
2022-08-22T21:53:12.135Z,100234.89
2022-08-22T21:55:46.080Z,100238.18
2022-08-22T21:58:36.029Z,100241.27
2022-08-22T22:01:27.682Z,100235.64
2022-08-22T22:03:58.018Z,100231.99
2022-08-22T22:06:26.958Z,100227.73
2022-08-22T22:08:55.561Z,100228.83
2022-08-22T22:11:24.200Z,100230.88
2022-08-22T22:13:52.988Z,100228.10
2022-08-22T22:16:25.349Z,100223.83
2022-08-22T22:18:53.969Z,100220.31
2022-08-22T22:21:22.457Z,100216.86
2022-08-22T22:23:50.778Z,100214.80
2022-08-22T22:26:20.544Z,100213.76
2022-08-22T22:28:49.656Z,100210.60
2022-08-22T22:31:18.622Z,100199.27
2022-08-22T22:33:47.211Z,100197.36
2022-08-22T22:36:19.501Z,100195.58
2022-08-22T22:38:48.952Z,100194.17
2022-08-22T22:41:24.637Z,100192.36
2022-08-22T22:43:53.804Z,100196.36
2022-08-22T22:46:22.900Z,100193.30
2022-08-22T22:48:51.238Z,100194.42
2022-08-22T22:51:20.232Z,100196.63
2022-08-22T22:53:49.086Z,100200.33
2022-08-22T22:56:21.445Z,100202.14
2022-08-22T22:58:50.564Z,100206.37
2022-08-22T23:01:27.855Z,100208.58
2022-08-22T23:04:03.216Z,100207.59
2022-08-22T23:06:35.335Z,100211.27
2022-08-22T23:09:04.302Z,100211.70
2022-08-22T23:11:32.709Z,100210.10
2022-08-22T23:14:02.233Z,100211.17
2022-08-22T23:16:35.172Z,100208.21
2022-08-22T23:19:09.429Z,100211.73
2022-08-22T23:21:38.299Z,100219.54
2022-08-22T23:24:07.469Z,100221.42
2022-08-22T23:26:36.878Z,100219.02
2022-08-22T23:29:06.088Z,100214.88
2022-08-22T23:31:36.666Z,100213.63
2022-08-22T23:34:06.959Z,100208.30
2022-08-22T23:36:35.977Z,100200.88
2022-08-22T23:39:05.865Z,100201.40
2022-08-22T23:41:34.665Z,100195.86
2022-08-22T23:44:06.105Z,100198.30
2022-08-22T23:46:34.841Z,100205.17
2022-08-22T23:49:04.466Z,100206.64
2022-08-22T23:51:33.535Z,100209.18
2022-08-22T23:54:02.933Z,100213.89
2022-08-22T23:56:35.080Z,100217.36
2022-08-22T23:59:07.709Z,100220.35
